Pagina principale
METAR-TAF:

METAR-TAF

Aeroporti :

Pescara, Italia

Aeroporto di Pescara

latitudine: 42-26N, longitudine: 014-12E, altezza: 10 m

Osservazione

Il bollettino è stato emesso 51 minuti fa, alle 08:50 UTC
Vento 2 kt da direzioni variabili
Temperature 26°C
Umidità 37%
Pressione 1018 hPa
Visibilità 10 km o più
nessuna nube inferiore a 1500 m e nessun cumulonembo

METAR: LIBP 290850Z VRB02KT CAVOK 26/10 Q1018

Ora: 11:41 (09:41 UTC)

Previsione

Il bollettino è stato emesso 4 ore e 41 minuti fa, alle 05:00 UTC
Previsione valida dal 29 alle 06 UTC al 30 alle 06 UTC
Vento 5 kt da direzioni variabili
Visibilità 10 km o più
nessuna nube inferiore a 1500 m e nessun cumulonembo
Evoluzione graduale
dal 29 alle 10 UTC al 29 alle 12 UTC
Vento 12 kt da nord/nord-est
Evoluzione graduale
dal 29 alle 17 UTC al 29 alle 19 UTC
Vento 5 kt da direzioni variabili

TAF: LIBP 290500Z 2906/3006 VRB05KT CAVOK BECMG 2910/2912 02012KT BECMG 2917/2919 VRB05KT

Osservazioni e previsioni meteorologiche di più di 4000 aeroporti (messaggi METAR e TAF).

Le stazioni disponibili sono rappresentate dai dischi gialli e rossi sulla carta.

Puntare il mouse per vedere il nome della stazione.

Clicca sopra per visualizzare le osservazioni e previsioni meteorologiche.

Per cambiare la mappa : fare clic sui pulsanti verdi con una croce nera per ingrandire, il pulsante verde con un trattino per diminuire, o sulla freccia verde per le mappe adiacenti.


METAR-TAF: